createdAt,value
2018-08-18T00:00:42.756Z,38.83
2018-08-18T00:01:52.322Z,38.64
2018-08-18T00:03:01.620Z,38.17
2018-08-18T00:04:11.465Z,38.74
2018-08-18T00:05:21.305Z,37.49
2018-08-18T00:06:31.151Z,37.97
2018-08-18T00:07:40.721Z,37.78
2018-08-18T00:08:50.561Z,37.97
2018-08-18T00:10:00.400Z,39.22
2018-08-18T00:11:10.245Z,39.12
2018-08-18T00:12:19.815Z,40.08
2018-08-18T00:13:29.656Z,38.93
2018-08-18T00:14:39.494Z,39.4
2018-08-18T00:15:49.067Z,40.26
2018-08-18T00:16:58.909Z,39.03
2018-08-18T00:18:08.756Z,38.45
2018-08-18T00:19:18.061Z,39.12
2018-08-18T00:20:27.628Z,38.26
2018-08-18T00:21:37.742Z,38.17
2018-08-18T00:22:47.315Z,38.17
2018-08-18T00:23:57.214Z,38.45
2018-08-18T00:25:07.051Z,38.93
2018-08-18T00:26:16.631Z,39.03
2018-08-18T00:27:26.203Z,38.83
2018-08-18T00:28:35.786Z,39.12
2018-08-18T00:29:45.090Z,38.64
2018-08-18T00:30:54.663Z,37.97
2018-08-18T00:32:04.508Z,37.3
2018-08-18T00:33:14.352Z,36.92
2018-08-18T00:34:24.367Z,35.1
2018-08-18T00:35:33.833Z,34.81
2018-08-18T00:36:43.687Z,34.8
2018-08-18T00:37:52.716Z,33.75
2018-08-18T00:39:02.283Z,33.57
2018-08-18T00:40:11.864Z,32.6
2018-08-18T00:41:21.707Z,32.52
2018-08-18T00:42:31.008Z,33.19
2018-08-18T00:43:40.857Z,32.81
2018-08-18T00:44:50.970Z,32.21
2018-08-18T00:46:00.806Z,32.6
2018-08-18T00:47:10.112Z,33.75
2018-08-18T00:48:19.680Z,33.27
2018-08-18T00:49:29.246Z,33
2018-08-18T00:50:39.090Z,32.41
2018-08-18T00:51:48.932Z,32.7
2018-08-18T00:52:58.763Z,32.03
2018-08-18T00:54:08.606Z,31.93
2018-08-18T00:55:18.450Z,31.55
2018-08-18T00:56:28.285Z,32.21
2018-08-18T00:57:37.868Z,32.5
2018-08-18T00:58:47.712Z,32.6
2018-08-18T00:59:57.567Z,32.21
2018-08-18T01:01:06.600Z,32.21
2018-08-18T01:02:15.904Z,32.03
2018-08-18T01:03:25.473Z,31.64
2018-08-18T01:04:35.316Z,31.93
2018-08-18T01:05:44.884Z,32.21
2018-08-18T01:06:54.453Z,32.21
2018-08-18T01:08:03.755Z,31.74
2018-08-18T01:09:12.786Z,32.31
2018-08-18T01:10:22.680Z,31.74
2018-08-18T01:11:32.804Z,30.59
2018-08-18T01:12:43.888Z,29.35
2018-08-18T01:13:54.385Z,29.25
2018-08-18T01:15:05.066Z,28.49
2018-08-18T01:16:14.648Z,28.39
2018-08-18T01:17:23.681Z,27.91
2018-08-18T01:18:33.250Z,28.3
2018-08-18T01:19:43.354Z,29.06
2018-08-18T01:20:53.462Z,29.25
2018-08-18T01:22:03.569Z,30.02
2018-08-18T01:23:13.144Z,30.11
2018-08-18T01:24:22.981Z,30.4
2018-08-18T01:25:32.550Z,29.35
2018-08-18T01:26:41.849Z,29.73
2018-08-18T01:27:51.164Z,29.35
2018-08-18T01:29:01.006Z,28.39
2018-08-18T01:30:10.581Z,27.53
2018-08-18T01:31:20.150Z,27.05
2018-08-18T01:32:29.452Z,26.57
2018-08-18T01:33:39.292Z,26.39
2018-08-18T01:34:49.403Z,26.19
2018-08-18T01:35:58.713Z,25.71
2018-08-18T01:37:08.558Z,24.74
2018-08-18T01:38:18.398Z,24.65
2018-08-18T01:39:27.964Z,24.55
2018-08-18T01:40:37.533Z,24.55
2018-08-18T01:41:46.838Z,24.46
2018-08-18T01:42:56.427Z,25.23
2018-08-18T01:44:06.002Z,24.18
2018-08-18T01:45:15.349Z,23.69
2018-08-18T01:46:24.379Z,23.03
2018-08-18T01:47:33.959Z,22.07
2018-08-18T01:48:43.259Z,21.97
2018-08-18T01:49:53.098Z,21.88
2018-08-18T01:51:02.937Z,22.07
2018-08-18T01:52:12.236Z,22.07
2018-08-18T01:53:21.266Z,21.21
2018-08-18T01:54:31.106Z,21.88
2018-08-18T01:55:40.943Z,21.21
2018-08-18T01:56:50.785Z,21.59
2018-08-18T01:58:00.628Z,22.64
2018-08-18T01:59:10.478Z,23.32
2018-08-18T02:00:19.513Z,24.08
2018-08-18T02:01:29.626Z,24.55
2018-08-18T02:02:39.464Z,24.55
2018-08-18T02:03:49.308Z,23.41
2018-08-18T02:04:58.610Z,23.22
2018-08-18T02:06:08.185Z,23.32
2018-08-18T02:07:17.762Z,23.03
2018-08-18T02:08:27.064Z,22.64
2018-08-18T02:09:36.646Z,21.21
2018-08-18T02:10:46.215Z,21.12
2018-08-18T02:11:55.785Z,20.35
2018-08-18T02:13:05.632Z,20.54
2018-08-18T02:14:15.480Z,20.83
2018-08-18T02:15:25.330Z,20.45
2018-08-18T02:16:35.491Z,21.21
2018-08-18T02:17:45.059Z,21.31
2018-08-18T02:18:54.633Z,21.41
2018-08-18T02:20:04.670Z,21.59
2018-08-18T02:21:15.058Z,22.45
2018-08-18T02:22:24.920Z,22.36
2018-08-18T02:23:34.218Z,22.36
2018-08-18T02:24:43.790Z,22.64
2018-08-18T02:25:53.691Z,23.32
2018-08-18T02:27:03.803Z,22.74
2018-08-18T02:28:13.375Z,21.21
2018-08-18T02:29:22.946Z,21.41
2018-08-18T02:30:32.245Z,21.5
2018-08-18T02:31:42.406Z,20.73
2018-08-18T02:32:52.250Z,20.92
2018-08-18T02:34:01.836Z,21.31
2018-08-18T02:35:11.142Z,21.02
2018-08-18T02:36:20.716Z,20.92
2018-08-18T02:37:30.554Z,21.21
2018-08-18T02:38:40.395Z,21.12
2018-08-18T02:39:50.518Z,21.2
2018-08-18T02:41:00.502Z,20.92
2018-08-18T02:42:10.081Z,20.54
2018-08-18T02:43:19.944Z,21.11
2018-08-18T02:44:29.553Z,21.68
2018-08-18T02:45:39.667Z,21.11
2018-08-18T02:46:49.240Z,21.69
2018-08-18T02:47:58.541Z,21.68
2018-08-18T02:49:07.843Z,21.59
2018-08-18T02:50:17.743Z,22.26
2018-08-18T02:51:27.318Z,22.44
2018-08-18T02:52:37.426Z,22.54
2018-08-18T02:53:47.268Z,22.73
2018-08-18T02:54:57.168Z,22.64
2018-08-18T02:56:07.021Z,22.54
2018-08-18T02:57:16.323Z,20.82
2018-08-18T02:58:25.635Z,20.34
2018-08-18T02:59:35.219Z,19.57
2018-08-18T03:00:44.571Z,19.1
2018-08-18T03:01:54.412Z,19.01
2018-08-18T03:03:03.998Z,19.2
2018-08-18T03:04:13.303Z,19.38
2018-08-18T03:05:22.334Z,18.72
2018-08-18T03:06:31.647Z,18.52
2018-08-18T03:07:41.235Z,17.86
2018-08-18T03:08:51.243Z,17.47
2018-08-18T03:10:00.821Z,17.38
2018-08-18T03:11:10.392Z,16.81
2018-08-18T03:12:20.020Z,15.75
2018-08-18T03:13:29.598Z,14.51
2018-08-18T03:14:39.448Z,13.28
2018-08-18T03:15:49.563Z,12.6
2018-08-18T03:16:59.418Z,11.65
2018-08-18T03:18:08.997Z,11.27
2018-08-18T03:19:18.838Z,11.65
2018-08-18T03:20:28.682Z,11.65
2018-08-18T03:21:38.793Z,11.65
2018-08-18T03:22:48.369Z,11.65
2018-08-18T03:23:58.228Z,11.55
2018-08-18T03:25:08.069Z,11.65
2018-08-18T03:26:17.637Z,11.65
2018-08-18T03:27:26.940Z,11.46
2018-08-18T03:28:35.972Z,11.27
2018-08-18T03:29:46.136Z,11.46
2018-08-18T03:30:55.980Z,11.36
2018-08-18T03:32:05.561Z,10.98
2018-08-18T03:33:15.422Z,11.27
2018-08-18T03:34:24.729Z,10.31
2018-08-18T03:35:34.303Z,10.88
2018-08-18T03:36:43.883Z,11.55
2018-08-18T03:37:53.465Z,12.32
2018-08-18T03:39:03.303Z,12.13
2018-08-18T03:40:12.875Z,11.94
2018-08-18T03:41:22.449Z,12.13
2018-08-18T03:42:32.019Z,11.74
2018-08-18T03:43:41.601Z,11.94
2018-08-18T03:44:51.715Z,12.23
2018-08-18T03:46:01.557Z,12.23
2018-08-18T03:47:10.860Z,12.32
2018-08-18T03:48:20.437Z,12.6
2018-08-18T03:49:29.736Z,13.28
2018-08-18T03:50:39.577Z,13.46
2018-08-18T03:51:49.693Z,13.28
2018-08-18T03:52:59.278Z,14.04
2018-08-18T03:54:08.872Z,14.32
2018-08-18T03:55:18.738Z,14.13
2018-08-18T03:56:28.577Z,14.04
2018-08-18T03:57:37.876Z,13.46
2018-08-18T03:58:47.448Z,14.23
2018-08-18T03:59:57.013Z,14.51
2018-08-18T04:01:06.583Z,14.32
2018-08-18T04:02:16.426Z,13.75
2018-08-18T04:03:26.285Z,13.94
2018-08-18T04:04:36.122Z,13.46
2018-08-18T04:05:45.697Z,13.46
2018-08-18T04:06:55.270Z,13.28
2018-08-18T04:08:05.382Z,13.08
2018-08-18T04:09:15.373Z,13.18
2018-08-18T04:10:25.503Z,13.18
2018-08-18T04:11:35.349Z,12.7
2018-08-18T04:12:44.919Z,12.79
2018-08-18T04:13:54.490Z,12.23
2018-08-18T04:15:03.795Z,13.28
2018-08-18T04:16:13.147Z,13.46
2018-08-18T04:17:22.721Z,13.75
2018-08-18T04:18:32.838Z,13.94
2018-08-18T04:19:42.682Z,14.23
2018-08-18T04:20:52.251Z,14.32
2018-08-18T04:22:02.414Z,14.13
2018-08-18T04:23:11.982Z,13.46
2018-08-18T04:24:21.834Z,14.23
2018-08-18T04:25:31.411Z,13.65
2018-08-18T04:26:40.979Z,13.37
2018-08-18T04:27:50.550Z,12.6
2018-08-18T04:28:59.585Z,11.46
2018-08-18T04:30:09.163Z,11.36
2018-08-18T04:31:19.003Z,11.74
2018-08-18T04:32:28.845Z,11.55
2018-08-18T04:33:38.469Z,11.08
2018-08-18T04:34:48.320Z,10.69
2018-08-18T04:35:58.440Z,9.83
2018-08-18T04:37:08.013Z,9.17
2018-08-18T04:38:17.590Z,9.36
2018-08-18T04:39:27.701Z,9.26
2018-08-18T04:40:36.737Z,9.17
2018-08-18T04:41:46.582Z,9.45
2018-08-18T04:42:56.152Z,9.26
2018-08-18T04:44:06.271Z,9.17
2018-08-18T04:45:16.167Z,9.55
2018-08-18T04:46:26.286Z,9.45
2018-08-18T04:47:35.856Z,9.64
2018-08-18T04:48:45.432Z,9.45
2018-08-18T04:49:55.552Z,9.26
2018-08-18T04:51:04.856Z,8.78
2018-08-18T04:52:14.710Z,9.26
2018-08-18T04:53:24.563Z,9.26
2018-08-18T04:54:34.138Z,9.17
2018-08-18T04:55:43.710Z,9.17
2018-08-18T04:56:53.642Z,9.45
2018-08-18T04:58:04.153Z,9.74
2018-08-18T04:59:14.410Z,10.22
2018-08-18T05:00:24.249Z,9.74
2018-08-18T05:01:34.367Z,10.22
2018-08-18T05:02:44.485Z,10.88
2018-08-18T05:03:54.057Z,10.22
2018-08-18T05:05:04.002Z,10.5
2018-08-18T05:06:14.119Z,10.41
2018-08-18T05:07:23.697Z,10.6
2018-08-18T05:08:33.584Z,10.22
2018-08-18T05:09:43.153Z,10.12
2018-08-18T05:10:52.996Z,9.93
2018-08-18T05:12:02.574Z,10.31
2018-08-18T05:13:12.145Z,9.83
2018-08-18T05:14:21.716Z,10.03
2018-08-18T05:15:31.561Z,9.83
2018-08-18T05:16:41.411Z,9.83
2018-08-18T05:17:50.443Z,9.07
2018-08-18T05:19:00.503Z,9.45
2018-08-18T05:20:10.960Z,9.83
2018-08-18T05:21:20.769Z,10.03
2018-08-18T05:22:30.613Z,10.03
2018-08-18T05:23:39.920Z,10.12
2018-08-18T05:24:49.491Z,10.03
2018-08-18T05:25:59.381Z,10.69
2018-08-18T05:27:08.950Z,10.12
2018-08-18T05:28:18.249Z,10.12
2018-08-18T05:29:27.553Z,10.12
2018-08-18T05:30:36.859Z,9.93
2018-08-18T05:31:46.701Z,10.12
2018-08-18T05:32:56.550Z,9.74
2018-08-18T05:34:06.451Z,10.12
2018-08-18T05:35:16.295Z,10.13
2018-08-18T05:36:26.188Z,10.12
2018-08-18T05:37:36.486Z,9.45
2018-08-18T05:38:46.327Z,9.08
2018-08-18T05:39:56.174Z,9.36
2018-08-18T05:41:05.473Z,9.27
2018-08-18T05:42:15.353Z,8.98
2018-08-18T05:43:25.204Z,9.17
2018-08-18T05:44:35.058Z,9.27
2018-08-18T05:45:44.901Z,9.08
2018-08-18T05:46:54.742Z,9.08
2018-08-18T05:48:04.046Z,9.27
2018-08-18T05:49:13.618Z,8.89
2018-08-18T05:50:23.738Z,9.27
2018-08-18T05:51:33.311Z,9.55
2018-08-18T05:52:42.884Z,9.55
2018-08-18T05:53:52.996Z,8.89
2018-08-18T05:55:02.839Z,9.17
2018-08-18T05:56:12.414Z,8.69
2018-08-18T05:57:21.451Z,8.31
2018-08-18T05:58:31.021Z,8.31
2018-08-18T05:59:41.208Z,8.31
2018-08-18T06:00:51.697Z,8.12
2018-08-18T06:02:01.821Z,8.41
2018-08-18T06:03:11.124Z,8.6
2018-08-18T06:04:21.230Z,8.6
2018-08-18T06:05:31.373Z,8.89
2018-08-18T06:06:40.993Z,8.22
2018-08-18T06:07:51.114Z,7.55
2018-08-18T06:09:01.059Z,7.36
2018-08-18T06:10:10.902Z,7.36
2018-08-18T06:11:20.475Z,7.17
2018-08-18T06:12:30.366Z,7.36
2018-08-18T06:13:39.398Z,7.74
2018-08-18T06:14:49.244Z,8.22
2018-08-18T06:15:59.096Z,8.22
2018-08-18T06:17:09.210Z,8.31
2018-08-18T06:18:18.780Z,8.41
2018-08-18T06:19:28.352Z,8.22
2018-08-18T06:20:37.923Z,8.8
2018-08-18T06:21:47.492Z,8.7
2018-08-18T06:22:57.077Z,8.6
2018-08-18T06:24:06.968Z,8.32
2018-08-18T06:25:16.813Z,8.99
2018-08-18T06:26:26.656Z,8.8
2018-08-18T06:27:36.238Z,9.08
2018-08-18T06:28:46.093Z,9.47
2018-08-18T06:29:55.946Z,9.18
2018-08-18T06:31:05.531Z,10.71
2018-08-18T06:32:15.105Z,11.57
2018-08-18T06:33:24.943Z,11.66
2018-08-18T06:34:35.198Z,12.43
2018-08-18T06:35:45.779Z,13.3
2018-08-18T06:36:55.359Z,13.11
2018-08-18T06:38:04.937Z,13.97
2018-08-18T06:39:15.056Z,14.73
2018-08-18T06:40:24.902Z,14.64
2018-08-18T06:41:34.565Z,14.83
2018-08-18T06:42:44.668Z,15.41
2018-08-18T06:43:54.516Z,15.79
2018-08-18T06:45:04.367Z,15.41
2018-08-18T06:46:13.684Z,15.79
2018-08-18T06:47:23.789Z,15.88
2018-08-18T06:48:33.631Z,15.69
2018-08-18T06:49:43.756Z,15.98
2018-08-18T06:50:53.603Z,16.27
2018-08-18T06:52:03.448Z,17.51
2018-08-18T06:53:13.018Z,17.61
2018-08-18T06:54:22.468Z,17.13
2018-08-18T06:55:32.436Z,18.47
2018-08-18T06:56:41.739Z,18.18
2018-08-18T06:57:51.038Z,17.9
2018-08-18T06:59:00.877Z,18.48
2018-08-18T07:00:10.722Z,18.19
2018-08-18T07:01:20.026Z,19.43
2018-08-18T07:02:29.324Z,20.1
2018-08-18T07:03:39.176Z,22.4
2018-08-18T07:04:49.018Z,22.5
2018-08-18T07:05:58.315Z,23.36
2018-08-18T07:07:08.413Z,25.18
2018-08-18T07:08:18.522Z,24.71
2018-08-18T07:09:28.379Z,25.1
2018-08-18T07:10:38.219Z,24.33
2018-08-18T07:11:47.796Z,24.33
2018-08-18T07:12:57.912Z,25
2018-08-18T07:14:07.762Z,26.15
2018-08-18T07:15:17.611Z,26.92
2018-08-18T07:16:27.455Z,27.39
2018-08-18T07:17:36.769Z,27.3
2018-08-18T07:18:46.634Z,28.55
2018-08-18T07:19:55.945Z,27.3
2018-08-18T07:21:05.250Z,27.2
2018-08-18T07:22:15.380Z,26.63
2018-08-18T07:23:24.956Z,26.63
2018-08-18T07:24:35.078Z,27.39
2018-08-18T07:25:44.917Z,30.86
2018-08-18T07:26:54.758Z,34.02
2018-08-18T07:28:03.802Z,35.94
2018-08-18T07:29:13.653Z,36.32
2018-08-18T07:30:23.537Z,37.18
2018-08-18T07:31:33.397Z,38.74
2018-08-18T07:32:43.237Z,42.07
2018-08-18T07:33:52.811Z,42.07
2018-08-18T07:35:02.126Z,42.57
2018-08-18T07:36:11.438Z,44.2
2018-08-18T07:37:21.647Z,44.3
2018-08-18T07:38:31.723Z,43.82
2018-08-18T07:39:41.361Z,45.74
2018-08-18T07:40:50.945Z,46.05
2018-08-18T07:42:00.801Z,47.01
2018-08-18T07:43:10.659Z,48.83
2018-08-18T07:44:20.242Z,49.5
2018-08-18T07:45:29.015Z,50.65
2018-08-18T07:46:39.134Z,50.27
2018-08-18T07:47:48.437Z,54.3
2018-08-18T07:48:58.331Z,56.22
2018-08-18T07:50:07.955Z,56.89
2018-08-18T07:51:17.537Z,59.58
2018-08-18T07:52:27.378Z,62.19
2018-08-18T07:53:37.313Z,62.87
2018-08-18T07:54:46.984Z,63.45
2018-08-18T07:55:56.830Z,61.24
2018-08-18T07:57:06.129Z,65.94
2018-08-18T07:58:16.237Z,64.69
2018-08-18T07:59:26.087Z,67
2018-08-18T08:00:36.229Z,67.86
2018-08-18T08:01:46.089Z,68.05
2018-08-18T08:02:55.938Z,71.93
2018-08-18T08:04:05.805Z,73.08
2018-08-18T08:05:15.574Z,73.75
2018-08-18T08:06:24.881Z,73.94
2018-08-18T08:07:34.186Z,79.03
2018-08-18T08:08:43.763Z,77.06
2018-08-18T08:09:53.879Z,77.15
2018-08-18T08:11:03.715Z,78.69
2018-08-18T08:12:12.756Z,79.07
2018-08-18T08:13:22.395Z,78.59
2018-08-18T08:14:31.987Z,79.46
2018-08-18T08:15:42.110Z,79.94
2018-08-18T08:16:51.964Z,79.84
2018-08-18T08:18:01.809Z,82.82
2018-08-18T08:19:11.768Z,82.34
2018-08-18T08:20:21.620Z,80.51
2018-08-18T08:21:31.203Z,81.86
2018-08-18T08:22:41.049Z,81.61
2018-08-18T08:23:50.893Z,81.99
2018-08-18T08:25:00.746Z,82.76
2018-08-18T08:26:10.055Z,82.38
2018-08-18T08:27:19.639Z,83.53
2018-08-18T08:28:28.954Z,83.63
2018-08-18T08:29:38.262Z,84.59
2018-08-18T08:30:48.377Z,83.73
2018-08-18T08:31:58.510Z,83.44
2018-08-18T08:33:08.309Z,85.46
2018-08-18T08:34:18.021Z,84.5
2018-08-18T08:35:27.378Z,84.69
2018-08-18T08:36:37.250Z,84.59
2018-08-18T08:37:47.275Z,84.4
2018-08-18T08:38:56.859Z,84.3
2018-08-18T08:40:06.715Z,84.88
2018-08-18T08:41:16.563Z,84.59
2018-08-18T08:42:26.668Z,84.59
2018-08-18T08:43:36.782Z,84.63
2018-08-18T08:44:46.359Z,84.92
2018-08-18T08:45:56.469Z,85.21
2018-08-18T08:47:06.313Z,85.11
2018-08-18T08:48:16.164Z,85.02
2018-08-18T08:49:26.008Z,85.6
2018-08-18T08:50:35.092Z,84.92
2018-08-18T08:51:44.402Z,85.02
2018-08-18T08:52:54.248Z,84.92
2018-08-18T08:54:04.371Z,84.92
2018-08-18T08:55:13.674Z,85.6
2018-08-18T08:56:23.302Z,85.5
2018-08-18T08:57:33.147Z,85.64
2018-08-18T08:58:42.739Z,85.4
2018-08-18T08:59:53.018Z,85.83
2018-08-18T09:01:03.141Z,86.22
2018-08-18T09:02:12.722Z,85.54
2018-08-18T09:03:22.293Z,86.02
2018-08-18T09:04:31.866Z,86.12
2018-08-18T09:05:41.172Z,86.12
2018-08-18T09:06:51.029Z,86.89
2018-08-18T09:08:00.937Z,86.31
2018-08-18T09:09:10.513Z,86.02
2018-08-18T09:10:20.225Z,86.02
2018-08-18T09:11:30.375Z,85.83
2018-08-18T09:12:40.232Z,87.08
2018-08-18T09:13:50.074Z,86.6
2018-08-18T09:14:59.646Z,85.93
2018-08-18T09:16:09.222Z,86.02
2018-08-18T09:17:18.520Z,86.31
2018-08-18T09:18:28.364Z,84.87
2018-08-18T09:19:38.202Z,84.77
2018-08-18T09:20:48.060Z,86.26
2018-08-18T09:21:57.903Z,85.97
2018-08-18T09:23:06.938Z,85.44
2018-08-18T09:24:17.052Z,85.49
2018-08-18T09:25:26.908Z,84.14
2018-08-18T09:26:37.183Z,84.62
2018-08-18T09:27:47.312Z,85.2
2018-08-18T09:28:56.619Z,83.75
2018-08-18T09:30:06.471Z,83.8
2018-08-18T09:31:15.515Z,83.75
2018-08-18T09:32:24.828Z,84.91
2018-08-18T09:33:34.669Z,84.23
2018-08-18T09:34:44.519Z,84.09
2018-08-18T09:35:53.829Z,84.23
2018-08-18T09:37:03.682Z,84.38
2018-08-18T09:38:13.260Z,84.38
2018-08-18T09:39:22.847Z,84.18
2018-08-18T09:40:32.426Z,85.34
2018-08-18T09:41:42.270Z,84.38
2018-08-18T09:42:52.107Z,84.28
2018-08-18T09:44:01.686Z,82.93
2018-08-18T09:45:11.537Z,83.89
2018-08-18T09:46:21.931Z,82.54
2018-08-18T09:47:32.142Z,82.2
2018-08-18T09:48:42.257Z,81.91
2018-08-18T09:49:52.117Z,82.39
2018-08-18T09:51:01.968Z,82.26
2018-08-18T09:52:11.543Z,83.74
2018-08-18T09:53:21.667Z,83.26
2018-08-18T09:54:31.253Z,82.78
2018-08-18T09:55:40.284Z,83.07
2018-08-18T09:56:50.142Z,85.86
2018-08-18T09:57:59.988Z,83.7
2018-08-18T09:59:09.364Z,83.84
2018-08-18T10:00:19.359Z,82.68
2018-08-18T10:01:29.203Z,84.12
2018-08-18T10:02:38.777Z,83.26
2018-08-18T10:03:48.081Z,81.72
2018-08-18T10:04:57.390Z,81.72
2018-08-18T10:06:06.969Z,82.68
2018-08-18T10:07:16.889Z,82.34
2018-08-18T10:08:26.194Z,81.24
2018-08-18T10:09:35.503Z,81.85
2018-08-18T10:10:45.083Z,81.57
2018-08-18T10:11:54.930Z,81.95
2018-08-18T10:13:04.236Z,82.34
2018-08-18T10:14:13.547Z,82.72
2018-08-18T10:15:23.587Z,81.91
2018-08-18T10:16:32.700Z,81.85
2018-08-18T10:17:42.280Z,82.14
2018-08-18T10:18:52.424Z,82.14
2018-08-18T10:20:01.998Z,82.05
2018-08-18T10:21:11.578Z,82.24
2018-08-18T10:22:21.154Z,82.05
2018-08-18T10:23:30.457Z,81.85
2018-08-18T10:24:39.758Z,80.69
2018-08-18T10:25:49.615Z,82.14
2018-08-18T10:26:59.463Z,81.85
2018-08-18T10:28:09.044Z,81.47
2018-08-18T10:29:18.347Z,79.54
2018-08-18T10:30:28.196Z,79.87
2018-08-18T10:31:37.824Z,79.87
2018-08-18T10:32:47.134Z,80.54
2018-08-18T10:33:56.711Z,80.69
2018-08-18T10:35:06.291Z,79.87
2018-08-18T10:36:16.132Z,80.64
2018-08-18T10:37:25.710Z,80.35
2018-08-18T10:38:35.026Z,78.96
2018-08-18T10:39:44.606Z,79.54
2018-08-18T10:40:54.456Z,79.58
2018-08-18T10:42:04.388Z,79.29
2018-08-18T10:43:15.036Z,79
2018-08-18T10:44:24.616Z,79.87
2018-08-18T10:45:34.461Z,79.1
2018-08-18T10:46:44.314Z,79.87
2018-08-18T10:47:54.176Z,80.68
2018-08-18T10:49:03.488Z,79.43
2018-08-18T10:50:13.337Z,78.85
2018-08-18T10:51:23.181Z,80.2
2018-08-18T10:52:32.791Z,79.43
2018-08-18T10:53:42.095Z,77.98
2018-08-18T10:54:51.403Z,78.94
2018-08-18T10:56:00.712Z,78.94
2018-08-18T10:57:10.027Z,78.66
2018-08-18T10:58:19.868Z,77.69
2018-08-18T10:59:29.269Z,77.5
2018-08-18T11:00:38.306Z,78.66
2018-08-18T11:01:47.347Z,78.17
2018-08-18T11:02:56.925Z,77.98
2018-08-18T11:04:06.255Z,78.08
2018-08-18T11:05:16.433Z,78.46
2018-08-18T11:06:26.277Z,77.4
2018-08-18T11:07:36.128Z,77.4
2018-08-18T11:08:46.251Z,78.08
2018-08-18T11:09:55.823Z,78.08
2018-08-18T11:11:05.672Z,78.08
2018-08-18T11:12:15.794Z,78.36
2018-08-18T11:13:25.363Z,76.95
2018-08-18T11:14:34.674Z,77.34
2018-08-18T11:15:43.979Z,76.86
2018-08-18T11:16:53.555Z,76.95
2018-08-18T11:18:02.874Z,77.25
2018-08-18T11:19:13.009Z,76.76
2018-08-18T11:20:22.582Z,77.53
2018-08-18T11:21:32.164Z,75.6
2018-08-18T11:22:42.005Z,76.09
2018-08-18T11:23:51.038Z,75.45
2018-08-18T11:25:00.889Z,75.35
2018-08-18T11:26:10.201Z,75.74
2018-08-18T11:27:20.044Z,76.03
2018-08-18T11:28:29.676Z,75.06
2018-08-18T11:29:39.973Z,75.35
2018-08-18T11:30:50.092Z,75.54
2018-08-18T11:32:00.207Z,75.35
2018-08-18T11:33:10.057Z,75.64
2018-08-18T11:34:19.632Z,75.26
2018-08-18T11:35:29.488Z,75.35
2018-08-18T11:36:38.532Z,75.2
2018-08-18T11:37:47.572Z,75.97
2018-08-18T11:38:56.880Z,75.29
2018-08-18T11:40:05.693Z,75.68
2018-08-18T11:41:15.004Z,73.74
2018-08-18T11:42:24.852Z,73.68
2018-08-18T11:43:34.702Z,73.88
2018-08-18T11:44:44.283Z,73.49
2018-08-18T11:45:54.135Z,73.3
2018-08-18T11:47:04.436Z,73.01
2018-08-18T11:48:14.592Z,72.91
2018-08-18T11:49:23.628Z,73.33
2018-08-18T11:50:33.213Z,72.85
2018-08-18T11:51:42.857Z,72.66
2018-08-18T11:52:52.712Z,72.66
2018-08-18T11:54:02.571Z,73.33
2018-08-18T11:55:12.486Z,73.33
2018-08-18T11:56:22.072Z,73.3
2018-08-18T11:57:31.918Z,74.01
2018-08-18T11:58:41.504Z,73.24
2018-08-18T11:59:51.091Z,73.33
2018-08-18T12:01:01.019Z,73.24
2018-08-18T12:02:11.076Z,73.01
2018-08-18T12:03:20.436Z,72.81
2018-08-18T12:04:30.011Z,73.97
2018-08-18T12:05:39.319Z,73.2
2018-08-18T12:06:48.926Z,72.62
2018-08-18T12:07:58.783Z,72.91
2018-08-18T12:09:08.690Z,72.14
2018-08-18T12:10:18.546Z,72.62
2018-08-18T12:11:28.482Z,72.95
2018-08-18T12:12:37.798Z,72.27
2018-08-18T12:13:46.861Z,72.66
2018-08-18T12:14:56.727Z,72.6
2018-08-18T12:16:06.041Z,72.6
2018-08-18T12:17:15.886Z,72.21
2018-08-18T12:18:26.008Z,72.21
2018-08-18T12:19:35.321Z,71.92
2018-08-18T12:20:44.364Z,71.72
2018-08-18T12:21:54.213Z,71.24
2018-08-18T12:23:04.065Z,71.08
2018-08-18T12:24:13.652Z,70.6
2018-08-18T12:25:23.565Z,70.21
2018-08-18T12:26:33.160Z,68.56
2018-08-18T12:27:42.750Z,67.69
2018-08-18T12:28:52.334Z,68.3
2018-08-18T12:30:02.321Z,68.3
2018-08-18T12:31:12.029Z,67.82
2018-08-18T12:32:21.903Z,68.24
2018-08-18T12:33:31.761Z,68.3
2018-08-18T12:34:41.620Z,67.76
2018-08-18T12:35:51.212Z,67.76
2018-08-18T12:37:00.618Z,67.4
2018-08-18T12:38:10.097Z,66.44
2018-08-18T12:39:19.691Z,65.75
2018-08-18T12:40:29.551Z,65.08
2018-08-18T12:41:39.406Z,65.27
2018-08-18T12:42:49.532Z,65.27
2018-08-18T12:43:59.114Z,64.95
2018-08-18T12:45:08.968Z,65.75
2018-08-18T12:46:18.293Z,65.72
2018-08-18T12:47:28.147Z,67.18
2018-08-18T12:48:38.275Z,65.82
2018-08-18T12:49:48.334Z,66.11
2018-08-18T12:50:58.484Z,67.08
2018-08-18T12:52:08.345Z,67.05
2018-08-18T12:53:18.216Z,66.69
2018-08-18T12:54:27.793Z,65.85
2018-08-18T12:55:37.377Z,65.27
2018-08-18T12:56:47.230Z,64.11
2018-08-18T12:57:57.354Z,64.69
2018-08-18T12:59:06.946Z,65.08
2018-08-18T13:00:16.798Z,65.85
2018-08-18T13:01:26.650Z,65.47
2018-08-18T13:02:35.966Z,66.72
2018-08-18T13:03:45.820Z,65.85
2018-08-18T13:04:55.407Z,64.78
2018-08-18T13:06:04.988Z,64.4
2018-08-18T13:07:15.109Z,64.59
2018-08-18T13:08:24.693Z,64.14
2018-08-18T13:09:34.542Z,64.4
2018-08-18T13:10:44.123Z,64.3
2018-08-18T13:11:53.710Z,63.33
2018-08-18T13:13:03.572Z,63.23
2018-08-18T13:14:13.157Z,64.01
2018-08-18T13:15:23.193Z,64.5
2018-08-18T13:16:32.773Z,64.88
2018-08-18T13:17:42.358Z,65.63
2018-08-18T13:18:52.479Z,65.72
2018-08-18T13:20:02.334Z,65.63
2018-08-18T13:21:11.642Z,65.75
2018-08-18T13:22:20.951Z,65.01
2018-08-18T13:23:30.535Z,64.82
2018-08-18T13:24:40.124Z,65.4
2018-08-18T13:25:49.709Z,63.65
2018-08-18T13:26:59.567Z,63.85
2018-08-18T13:28:09.150Z,64.33
2018-08-18T13:29:18.736Z,64.04
2018-08-18T13:30:28.322Z,64.11
2018-08-18T13:31:38.170Z,63.56
2018-08-18T13:32:48.087Z,62.19
2018-08-18T13:33:57.943Z,63.07
2018-08-18T13:35:07.255Z,63.43
2018-08-18T13:36:16.300Z,63.07
2018-08-18T13:37:25.346Z,64.14
2018-08-18T13:38:35.250Z,64.82
2018-08-18T13:39:45.384Z,63.49
2018-08-18T13:40:55.509Z,62.13
2018-08-18T13:42:05.638Z,62.42
2018-08-18T13:43:15.217Z,61.87
2018-08-18T13:44:24.805Z,61.84
2018-08-18T13:45:34.120Z,62.16
2018-08-18T13:46:44.129Z,62.07
2018-08-18T13:47:54.673Z,61.68
2018-08-18T13:49:04.524Z,61.38
2018-08-18T13:50:14.379Z,60.87
2018-08-18T13:51:23.967Z,61.25
2018-08-18T13:52:33.315Z,61.35
2018-08-18T13:53:43.730Z,61.48
2018-08-18T13:54:53.593Z,61.87
2018-08-18T13:56:03.738Z,61
2018-08-18T13:57:13.316Z,61.38
2018-08-18T13:58:23.167Z,60.9
2018-08-18T13:59:32.483Z,61.84
2018-08-18T14:00:42.341Z,61.77
2018-08-18T14:01:52.195Z,60.44
2018-08-18T14:03:02.047Z,59.21
2018-08-18T14:04:11.906Z,59.67
2018-08-18T14:05:21.797Z,58.89
2018-08-18T14:06:31.395Z,58.69
2018-08-18T14:07:40.985Z,59.76
2018-08-18T14:08:50.580Z,60.93
2018-08-18T14:10:00.440Z,60.64
2018-08-18T14:11:10.274Z,59.38
2018-08-18T14:12:20.135Z,59.18
2018-08-18T14:13:29.719Z,58.98
2018-08-18T14:14:39.297Z,58.59
2018-08-18T14:15:48.881Z,58.5
2018-08-18T14:16:58.471Z,59.57
2018-08-18T14:18:08.056Z,58.37
2018-08-18T14:19:17.420Z,58.59
2018-08-18T14:20:27.014Z,58.31
2018-08-18T14:21:36.601Z,58.53
2018-08-18T14:22:45.644Z,58.62
2018-08-18T14:23:55.767Z,58.89
2018-08-18T14:25:05.354Z,59.01
2018-08-18T14:26:15.213Z,58.04
2018-08-18T14:27:25.085Z,58.43
2018-08-18T14:28:34.782Z,58.72
2018-08-18T14:29:44.201Z,58.89
2018-08-18T14:30:53.783Z,58.72
2018-08-18T14:32:03.639Z,58.31
2018-08-18T14:33:13.496Z,59.67
2018-08-18T14:34:22.674Z,58.53
2018-08-18T14:35:32.312Z,58.62
2018-08-18T14:36:42.169Z,57.2
2018-08-18T14:37:52.287Z,57
2018-08-18T14:39:02.140Z,57.29
2018-08-18T14:40:11.726Z,56.71
2018-08-18T14:41:21.317Z,57.78
2018-08-18T14:42:30.907Z,56.51
2018-08-18T14:43:40.769Z,55.74
2018-08-18T14:44:50.884Z,55.83
2018-08-18T14:46:01.149Z,56.93
2018-08-18T14:47:11.006Z,55.76
2018-08-18T14:48:20.875Z,56.45
2018-08-18T14:49:30.466Z,56.54
2018-08-18T14:50:40.330Z,55.66
2018-08-18T14:51:49.919Z,55.66
2018-08-18T14:53:00.070Z,55.99
2018-08-18T14:54:09.518Z,56.18
2018-08-18T14:55:20.439Z,55.89
2018-08-18T14:56:30.029Z,55.6
2018-08-18T14:57:39.613Z,55.6
2018-08-18T14:58:49.814Z,54.65
2018-08-18T14:59:59.668Z,54.26
2018-08-18T15:01:09.800Z,53.8
2018-08-18T15:02:19.655Z,52.92
2018-08-18T15:03:29.531Z,53.97
2018-08-18T15:04:39.384Z,52.4